Time;durP1;ratioP1;P1;durP2;ratioP2;P2;SDS_P1;SDS_P2;PMS_P1;PMS_P2;Temp;Humidity;BMP_temperature;BMP_pressure;BME280_temperature;BME280_humidity;BME280_pressure;Samples;Min_cycle;Max_cycle;Signal;HPM_P1;HPM_P2
2023/04/26 00:02:26;;;;;;;13.60;6.40;;;;;;;7.98;95.39;99920.30;104261;1283;98992;-86
2023/04/26 00:05:13;;;;;;;17.60;7.30;;;;;;;7.99;95.52;99923.39;104460;1285;97843;-88
2023/04/26 00:07:59;;;;;;;17.80;6.10;;;;;;;8.00;95.38;99922.98;104355;1282;96704;-87
2023/04/26 00:10:45;;;;;;;13.30;6.30;;;;;;;8.00;95.26;99924.42;104341;1283;97215;-87
2023/04/26 00:13:30;;;;;;;14.20;6.00;;;;;;;7.99;95.16;99928.02;104453;1281;100072;-88
2023/04/26 00:16:17;;;;;;;14.30;6.50;;;;;;;8.00;95.29;99930.61;104354;1282;100428;-87
2023/04/26 00:19:03;;;;;;;8.60;5.10;;;;;;;8.02;95.40;99926.61;104325;1281;98050;-87
2023/04/26 00:21:48;;;;;;;17.10;6.80;;;;;;;8.01;95.12;99931.40;104517;1282;96010;-87
2023/04/26 00:24:35;;;;;;;13.00;6.30;;;;;;;8.00;95.18;99933.11;104409;1282;96661;-86
2023/04/26 00:27:20;;;;;;;18.20;6.00;;;;;;;7.99;95.16;99934.05;104223;1282;100008;-87
2023/04/26 00:30:07;;;;;;;16.50;6.70;;;;;;;7.97;95.01;99930.90;104360;1282;100551;-88
2023/04/26 00:32:53;;;;;;;14.90;7.00;;;;;;;7.95;95.14;99935.38;104399;1283;97796;-88
2023/04/26 00:35:38;;;;;;;12.20;6.20;;;;;;;7.94;95.44;99944.89;104223;1283;96648;-87
2023/04/26 00:38:24;;;;;;;14.10;6.50;;;;;;;7.95;95.51;99948.11;104434;1282;96700;-88
2023/04/26 00:41:11;;;;;;;12.30;5.90;;;;;;;7.95;95.54;99946.21;104424;1282;100152;-88
2023/04/26 00:43:57;;;;;;;14.50;6.70;;;;;;;7.93;95.44;99950.34;104614;1285;100376;-87
2023/04/26 00:46:43;;;;;;;9.00;5.60;;;;;;;7.90;95.62;99952.85;104407;1282;99050;-87
2023/04/26 00:49:30;;;;;;;15.10;6.80;;;;;;;7.90;95.81;99952.46;104372;1282;96576;-88
2023/04/26 00:52:16;;;;;;;14.80;7.00;;;;;;;7.90;95.74;99949.27;104568;1281;96743;-86
2023/04/26 00:55:02;;;;;;;17.70;7.30;;;;;;;7.91;95.84;99950.94;104388;1286;101829;-88
2023/04/26 00:57:48;;;;;;;17.00;6.80;;;;;;;7.93;96.00;99949.84;104354;1282;99132;-87
2023/04/26 01:00:34;;;;;;;14.40;6.70;;;;;;;7.95;96.20;99954.13;104389;1285;98334;-86
2023/04/26 01:03:19;;;;;;;15.70;7.00;;;;;;;7.98;96.26;99953.64;104413;1281;96695;-86
2023/04/26 01:06:05;;;;;;;15.70;6.40;;;;;;;7.99;96.12;99951.69;104404;1282;98645;-86
2023/04/26 01:08:55;;;;;;;8.40;6.40;;;;;;;8.00;96.06;99949.27;104578;1283;101385;-87
2023/04/26 01:11:42;;;;;;;12.00;7.60;;;;;;;8.01;95.77;99956.02;104748;1283;101354;-86
2023/04/26 01:14:28;;;;;;;14.00;6.50;;;;;;;8.03;95.87;99957.65;104437;1282;99113;-86
2023/04/26 01:17:14;;;;;;;19.10;6.90;;;;;;;8.03;95.88;99957.06;104456;1282;98005;-87
2023/04/26 01:20:00;;;;;;;15.00;7.40;;;;;;;8.03;95.50;99955.50;104250;1283;98529;-86
2023/04/26 01:22:46;;;;;;;12.10;7.00;;;;;;;8.01;95.26;99958.80;104382;1281;101382;-88
2023/04/26 01:25:33;;;;;;;13.90;6.00;;;;;;;7.99;95.02;99962.73;104375;1281;100488;-89
2023/04/26 01:28:20;;;;;;;18.70;7.00;;;;;;;7.96;94.62;99961.70;104384;1283;98520;-88
2023/04/26 01:31:06;;;;;;;9.70;5.80;;;;;;;7.92;94.36;99962.41;104421;1284;98018;-87
2023/04/26 01:33:52;;;;;;;12.90;5.60;;;;;;;7.84;93.71;99966.73;104237;1282;97961;-85
2023/04/26 01:36:38;;;;;;;13.10;5.90;;;;;;;7.75;93.93;99970.02;104488;1285;101536;-88
2023/04/26 01:39:24;;;;;;;17.30;6.20;;;;;;;7.69;94.15;99967.97;104734;1283;99253;-88
2023/04/26 01:42:10;;;;;;;17.40;7.40;;;;;;;7.65;94.35;99967.05;104672;1285;97807;-89
2023/04/26 01:44:56;;;;;;;14.60;6.00;;;;;;;7.62;94.21;99966.19;104662;1287;97806;-86
2023/04/26 01:47:42;;;;;;;13.60;6.10;;;;;;;7.58;94.41;99967.13;104688;1286;98485;-87
2023/04/26 01:50:28;;;;;;;16.70;7.20;;;;;;;7.58;94.71;99966.30;104976;1281;101484;-87
2023/04/26 01:53:14;;;;;;;11.50;6.00;;;;;;;7.56;94.30;99968.68;104673;1281;99241;-87
2023/04/26 01:56:01;;;;;;;12.10;6.50;;;;;;;7.53;94.24;99972.08;104486;1283;98538;-88
2023/04/26 01:58:47;;;;;;;15.10;6.50;;;;;;;7.48;93.96;99975.61;104484;1281;98004;-86
2023/04/26 02:01:32;;;;;;;10.30;6.80;;;;;;;7.44;93.93;99978.22;104431;1281;99595;-89
2023/04/26 02:04:18;;;;;;;13.70;7.00;;;;;;;7.40;93.88;99977.50;104535;1282;101355;-87
2023/04/26 02:07:05;;;;;;;13.70;6.60;;;;;;;7.37;93.70;99975.15;104452;1284;99336;-87
2023/04/26 02:09:51;;;;;;;12.60;7.10;;;;;;;7.34;93.48;99975.44;104387;1283;99062;-88
2023/04/26 02:12:37;;;;;;;13.10;7.30;;;;;;;7.29;93.35;99972.64;104446;1282;98014;-88
2023/04/26 02:15:22;;;;;;;15.40;7.80;;;;;;;7.25;93.12;99970.48;104491;1285;97936;-88
2023/04/26 02:18:08;;;;;;;16.20;7.90;;;;;;;7.19;92.90;99974.92;104353;1285;102314;-88
2023/04/26 02:20:54;;;;;;;16.70;7.80;;;;;;;7.15;92.80;99978.41;104430;1282;100504;-88
2023/04/26 02:23:40;;;;;;;12.80;7.90;;;;;;;7.09;92.80;99982.23;104564;1282;99562;-88
2023/04/26 02:26:28;;;;;;;15.00;7.60;;;;;;;7.05;92.62;99981.72;104521;1284;97905;-88
2023/04/26 02:29:14;;;;;;;16.40;7.50;;;;;;;7.02;92.56;99982.81;104539;1283;97695;-88
2023/04/26 02:31:59;;;;;;;14.30;7.40;;;;;;;6.98;92.34;99983.00;104538;1283;101407;-88
2023/04/26 02:34:46;;;;;;;14.60;7.10;;;;;;;6.92;91.96;99982.15;104553;1283;99147;-89
2023/04/26 02:37:33;;;;;;;20.40;7.30;;;;;;;6.88;91.91;99981.84;104427;1282;98449;-89
2023/04/26 02:40:19;;;;;;;11.80;6.40;;;;;;;6.84;91.91;99982.14;104483;1283;98062;-87
2023/04/26 02:43:05;;;;;;;21.50;7.40;;;;;;;6.82;91.74;99980.10;104405;1281;97976;-88
2023/04/26 02:45:50;;;;;;;13.70;7.00;;;;;;;6.79;91.54;99978.39;104493;1284;101392;-88
2023/04/26 02:48:36;;;;;;;19.10;7.80;;;;;;;6.72;91.25;99978.07;104438;1283;100893;-88
2023/04/26 02:51:22;;;;;;;12.70;6.70;;;;;;;6.69;90.95;99974.80;104453;1282;98123;-88
2023/04/26 02:54:08;;;;;;;15.70;7.80;;;;;;;6.65;91.05;99976.50;104318;1286;96397;-87
2023/04/26 02:56:54;;;;;;;14.70;7.10;;;;;;;6.61;90.77;99976.19;104357;1285;98533;-88
2023/04/26 02:59:40;;;;;;;17.70;6.90;;;;;;;6.55;90.60;99975.04;104451;1282;102526;-89
2023/04/26 03:02:26;;;;;;;13.40;7.20;;;;;;;6.49;90.40;99982.91;104395;1282;101239;-89
2023/04/26 03:05:12;;;;;;;14.20;7.00;;;;;;;6.43;90.16;99979.52;104522;1282;98029;-89
2023/04/26 03:07:58;;;;;;;17.10;8.10;;;;;;;6.37;89.95;99978.29;104564;1283;96489;-85
2023/04/26 03:10:45;;;;;;;16.30;6.80;;;;;;;6.33;89.95;99979.89;104505;1281;98453;-86
2023/04/26 03:13:31;;;;;;;13.50;7.30;;;;;;;6.28;90.09;99979.51;104475;1282;101379;-87
2023/04/26 03:16:22;;;;;;;22.60;7.90;;;;;;;6.27;89.81;99979.48;104506;1282;100114;-87
2023/04/26 03:19:08;;;;;;;11.40;6.30;;;;;;;6.26;89.88;99983.66;104405;1283;99163;-87
2023/04/26 03:21:56;;;;;;;13.70;6.40;;;;;;;6.23;89.45;99990.51;104472;1285;97921;-87
2023/04/26 03:24:43;;;;;;;17.60;6.30;;;;;;;6.15;89.01;99995.23;104490;1283;98012;-87
2023/04/26 03:27:29;;;;;;;17.40;6.40;;;;;;;6.09;88.82;100002.43;104523;1281;101434;-86
2023/04/26 03:30:15;;;;;;;16.50;6.50;;;;;;;6.07;88.87;100005.00;104472;1282;99369;-87
2023/04/26 03:33:02;;;;;;;18.80;8.20;;;;;;;6.03;88.83;100009.88;104335;1284;98550;-89
2023/04/26 03:35:48;;;;;;;17.00;7.10;;;;;;;5.97;88.68;100009.27;104538;1281;97806;-89
2023/04/26 03:38:34;;;;;;;15.90;6.50;;;;;;;5.91;88.62;100011.58;104493;1285;98092;-89
2023/04/26 03:41:21;;;;;;;11.00;5.70;;;;;;;5.88;88.78;100009.79;104397;1283;103053;-89
2023/04/26 03:44:07;;;;;;;17.20;6.40;;;;;;;5.87;88.55;100010.83;104608;1283;100373;-89
2023/04/26 03:46:53;;;;;;;16.60;7.80;;;;;;;5.83;88.22;100008.71;104605;1282;98388;-88
2023/04/26 03:49:38;;;;;;;11.70;6.50;;;;;;;5.80;88.26;100004.83;104416;1283;97957;-89
2023/04/26 03:52:24;;;;;;;15.20;6.40;;;;;;;5.77;88.05;100006.20;104481;1281;98001;-87
2023/04/26 03:55:10;;;;;;;12.30;5.90;;;;;;;5.76;88.03;100010.29;104470;1284;101404;-86
2023/04/26 03:57:56;;;;;;;14.40;6.90;;;;;;;5.71;87.70;100013.98;104474;1288;99360;-89
2023/04/26 04:00:43;;;;;;;15.20;5.70;;;;;;;5.67;87.71;100013.06;104854;1299;100177;-88
2023/04/26 04:03:29;;;;;;;14.00;7.20;;;;;;;5.64;87.82;100018.48;104436;1283;98099;-86
2023/04/26 04:06:15;;;;;;;12.50;6.60;;;;;;;5.63;87.68;100020.75;104539;1283;97919;-88
2023/04/26 04:09:04;;;;;;;19.20;7.20;;;;;;;5.61;87.79;100023.11;104515;1283;101459;-88
2023/04/26 04:11:50;;;;;;;17.20;7.10;;;;;;;5.62;87.74;100026.57;104766;1281;99238;-88
2023/04/26 04:14:36;;;;;;;13.00;6.80;;;;;;;5.65;87.78;100031.34;104522;1283;97952;-88
2023/04/26 04:17:24;;;;;;;15.00;7.30;;;;;;;5.65;87.72;100031.63;104367;1281;98575;-86
2023/04/26 04:20:10;;;;;;;13.60;7.00;;;;;;;5.62;87.51;100027.89;104437;1288;98021;-86
2023/04/26 04:22:57;;;;;;;17.20;7.60;;;;;;;5.58;87.33;100030.15;104452;1288;103105;-87
2023/04/26 04:25:44;;;;;;;14.90;6.70;;;;;;;5.50;87.14;100033.13;104505;1282;100463;-87
2023/04/26 04:28:33;;;;;;;15.90;5.70;;;;;;;5.44;87.36;100033.49;104418;1281;107102;-87
2023/04/26 04:31:18;;;;;;;13.20;6.60;;;;;;;5.41;87.37;100036.41;104513;1281;97948;-87
2023/04/26 04:34:04;;;;;;;12.00;6.30;;;;;;;5.40;87.47;100039.60;104553;1285;98545;-88
2023/04/26 04:36:50;;;;;;;14.80;6.40;;;;;;;5.40;87.80;100038.17;104508;1289;102493;-86
2023/04/26 04:39:35;;;;;;;13.40;6.40;;;;;;;5.43;87.87;100039.11;104497;1285;98981;-87
2023/04/26 04:42:22;;;;;;;18.60;6.90;;;;;;;5.45;87.88;100035.86;104428;1288;97880;-86
2023/04/26 04:45:08;;;;;;;13.60;6.00;;;;;;;5.45;87.74;100033.36;104487;1283;98000;-87
2023/04/26 04:47:56;;;;;;;13.30;6.30;;;;;;;5.45;87.92;100038.80;104562;1285;97887;-87
2023/04/26 04:50:41;;;;;;;14.70;6.20;;;;;;;5.48;88.04;100038.66;104546;1283;101357;-87
2023/04/26 04:53:27;;;;;;;15.40;6.50;;;;;;;5.49;88.03;100042.48;104404;1282;99870;-86
2023/04/26 04:56:17;;;;;;;14.70;5.90;;;;;;;5.51;88.18;100042.66;104464;1282;98043;-87
2023/04/26 04:59:03;;;;;;;21.10;7.10;;;;;;;5.53;88.22;100046.11;104622;1283;98055;-88
2023/04/26 05:01:50;;;;;;;13.90;6.70;;;;;;;5.53;88.34;100046.45;104513;1285;97979;-86
2023/04/26 05:04:35;;;;;;;17.70;6.50;;;;;;;5.52;88.14;100047.27;104556;1281;101372;-87
2023/04/26 05:07:21;;;;;;;12.40;5.80;;;;;;;5.54;88.18;100052.28;104425;1283;99603;-87
2023/04/26 05:10:11;;;;;;;16.20;6.30;;;;;;;5.58;88.54;100055.33;104375;1283;98167;-87
2023/04/26 05:12:57;;;;;;;14.70;6.00;;;;;;;5.64;88.70;100057.14;104489;1288;97815;-87
2023/04/26 05:15:43;;;;;;;20.10;7.40;;;;;;;5.68;88.68;100062.81;104638;1283;98008;-87
2023/04/26 05:18:29;;;;;;;8.10;5.60;;;;;;;5.74;88.84;100062.01;104512;1282;101500;-87
2023/04/26 05:21:15;;;;;;;18.90;6.30;;;;;;;5.80;88.85;100062.03;104468;1283;99263;-87
2023/04/26 05:24:03;;;;;;;14.40;5.80;;;;;;;5.87;88.65;100064.67;104423;1281;107095;-88
2023/04/26 05:26:48;;;;;;;14.20;6.10;;;;;;;5.92;88.63;100069.73;104461;1283;97969;-87
2023/04/26 05:29:52;;;;;;;14.20;6.20;;;;;;;5.99;88.34;100071.45;104748;1283;97979;-87
2023/04/26 05:32:55;;;;;;;13.20;5.80;;;;;;;6.05;88.14;100066.48;104452;1283;101954;-86
2023/04/26 05:36:08;;;;;;;19.60;10.20;;;;;;;6.13;88.45;100066.33;104555;1286;100387;-88
2023/04/26 05:38:53;;;;;;;22.10;8.20;;;;;;;6.23;88.57;100071.18;104511;1285;97932;-87
2023/04/26 05:41:39;;;;;;;14.40;6.50;;;;;;;6.30;87.80;100069.72;104462;1286;97970;-88
2023/04/26 05:44:25;;;;;;;15.30;6.80;;;;;;;6.37;87.76;100067.00;104417;1288;98629;-86
2023/04/26 05:47:11;;;;;;;11.50;5.50;;;;;;;6.45;87.51;100069.08;104665;1285;101509;-87
2023/04/26 05:49:57;;;;;;;10.40;4.70;;;;;;;6.54;87.73;100072.30;104487;1284;99262;-86
2023/04/26 05:52:43;;;;;;;10.30;4.40;;;;;;;6.66;87.55;100067.41;104423;1288;98381;-87
2023/04/26 05:55:29;;;;;;;16.40;6.40;;;;;;;6.78;87.31;100066.73;104400;1282;98056;-87
2023/04/26 05:58:15;;;;;;;10.30;6.20;;;;;;;6.88;86.91;100072.06;104421;1283;97168;-87
2023/04/26 06:01:01;;;;;;;12.40;5.20;;;;;;;6.98;86.84;100076.23;104479;1283;101346;-86
2023/04/26 06:03:48;;;;;;;12.40;5.50;;;;;;;7.07;86.27;100079.86;104395;1283;99226;-87
2023/04/26 06:06:35;;;;;;;15.00;6.00;;;;;;;7.13;85.88;100075.59;104362;1283;98456;-86
2023/04/26 06:09:22;;;;;;;14.40;5.80;;;;;;;7.19;85.87;100074.85;104441;1282;98713;-86
2023/04/26 06:12:11;;;;;;;12.20;4.90;;;;;;;7.30;85.91;100080.80;104242;1283;98113;-87
2023/04/26 06:14:59;;;;;;;12.00;5.80;;;;;;;7.38;85.21;100085.44;104463;1283;101373;-87
2023/04/26 06:17:46;;;;;;;13.50;5.10;;;;;;;7.42;84.49;100086.33;104412;1283;100229;-87
2023/04/26 06:20:33;;;;;;;12.30;5.50;;;;;;;7.47;84.29;100086.10;104431;1282;98036;-90
2023/04/26 06:23:18;;;;;;;12.10;5.40;;;;;;;7.52;84.10;100089.91;104787;1283;98001;-88
2023/04/26 06:26:05;;;;;;;12.70;5.30;;;;;;;7.59;83.75;100091.78;104870;1282;98473;-87
2023/04/26 06:28:51;;;;;;;11.80;5.20;;;;;;;7.66;84.00;100090.75;104789;1283;101465;-86
2023/04/26 06:31:36;;;;;;;10.90;4.60;;;;;;;7.75;83.87;100091.30;104130;1283;99143;-85
2023/04/26 06:34:22;;;;;;;7.60;3.60;;;;;;;7.82;83.52;100091.95;104223;1282;97805;-85
2023/04/26 06:37:08;;;;;;;12.80;4.60;;;;;;;7.87;82.91;100090.63;104121;1283;97989;-87
2023/04/26 06:39:54;;;;;;;8.40;3.80;;;;;;;7.81;81.70;100089.16;104182;1286;98565;-86
2023/04/26 06:42:40;;;;;;;6.90;4.00;;;;;;;7.80;81.74;100092.65;104202;1285;101384;-86
2023/04/26 06:45:46;;;;;;;9.40;4.20;;;;;;;7.87;82.30;100089.73;104232;1285;100507;-86
2023/04/26 06:48:32;;;;;;;11.60;3.90;;;;;;;7.87;81.80;100089.15;104245;1285;98424;-86
2023/04/26 06:51:17;;;;;;;16.50;4.70;;;;;;;7.92;81.12;100092.10;104256;1283;97939;-88
2023/04/26 06:54:03;;;;;;;14.40;4.50;;;;;;;8.02;81.44;100092.86;104268;1282;99684;-88
2023/04/26 06:56:49;;;;;;;11.00;4.30;;;;;;;8.11;81.20;100089.23;104306;1283;102684;-86
2023/04/26 06:59:35;;;;;;;10.60;4.30;;;;;;;8.24;80.81;100089.29;104101;1282;99262;-85
2023/04/26 07:02:22;;;;;;;11.20;4.00;;;;;;;8.35;81.03;100092.00;104081;1285;106374;-86
2023/04/26 07:05:08;;;;;;;7.50;3.10;;;;;;;8.48;81.50;100091.50;104168;1282;98126;-86
2023/04/26 07:07:54;;;;;;;13.80;5.60;;;;;;;8.59;80.41;100093.21;104186;1284;99592;-85
2023/04/26 07:10:40;;;;;;;8.90;3.80;;;;;;;8.63;79.12;100094.73;104330;1283;103105;-88
2023/04/26 07:13:26;;;;;;;9.40;3.00;;;;;;;8.67;78.31;100100.78;104238;1283;99392;-85
2023/04/26 07:16:11;;;;;;;13.40;3.10;;;;;;;8.75;77.61;100101.72;104130;1285;98069;-85
2023/04/26 07:18:57;;;;;;;11.60;3.20;;;;;;;8.72;76.57;100103.92;104115;1283;98054;-83
2023/04/26 07:21:42;;;;;;;12.20;2.80;;;;;;;8.69;76.97;100108.34;104215;1283;97997;-86
2023/04/26 07:24:28;;;;;;;6.20;2.70;;;;;;;8.69;75.93;100111.54;104011;1281;101387;-85
2023/04/26 07:27:14;;;;;;;8.80;3.20;;;;;;;8.60;75.94;100108.29;104130;1282;99258;-85
2023/04/26 07:30:00;;;;;;;9.50;3.00;;;;;;;8.54;76.26;100108.38;104263;1285;99158;-86
2023/04/26 07:32:45;;;;;;;6.40;2.90;;;;;;;8.47;75.74;100105.14;104271;1282;96673;-84
2023/04/26 07:35:34;;;;;;;7.00;3.20;;;;;;;8.30;75.63;100109.17;104247;1283;98465;-88
2023/04/26 07:38:20;;;;;;;9.20;3.50;;;;;;;8.20;75.54;100113.98;104613;1284;111263;-90
2023/04/26 07:41:06;;;;;;;10.00;2.80;;;;;;;8.25;76.06;100116.34;104365;1281;99128;-85
2023/04/26 07:43:51;;;;;;;8.90;2.70;;;;;;;8.46;77.11;100115.29;104432;1284;98005;-88
2023/04/26 07:46:37;;;;;;;9.20;3.50;;;;;;;8.70;77.27;100113.58;104445;1282;98436;-87
2023/04/26 07:49:23;;;;;;;13.60;4.70;;;;;;;8.90;77.45;100111.99;104484;1283;98622;-87
2023/04/26 07:52:09;;;;;;;11.70;3.10;;;;;;;8.95;76.34;100113.66;104826;1283;101365;-89
2023/04/26 07:54:55;;;;;;;9.20;3.10;;;;;;;8.94;75.76;100115.54;104878;1285;99203;-89
2023/04/26 07:57:41;;;;;;;6.00;2.30;;;;;;;9.02;74.90;100110.36;104748;1282;97914;-91
2023/04/26 08:00:28;;;;;;;6.90;2.80;;;;;;;8.97;73.85;100110.42;104847;1283;96549;-91
2023/04/26 08:03:25;;;;;;;10.00;2.40;;;;;;;8.91;73.40;100114.02;104722;1283;98523;-92
2023/04/26 08:06:16;;;;;;;15.30;2.40;;;;;;;8.88;72.82;100117.09;104847;1283;102563;-89
2023/04/26 08:09:03;;;;;;;6.20;2.40;;;;;;;8.91;72.61;100123.47;104897;1282;101579;-91
2023/04/26 08:11:50;;;;;;;5.30;2.20;;;;;;;9.00;72.47;100123.21;104754;1288;97819;-91
2023/04/26 08:14:37;;;;;;;5.30;2.00;;;;;;;8.99;71.76;100127.05;104697;1283;98049;-88
2023/04/26 08:17:22;;;;;;;8.20;2.40;;;;;;;8.99;71.24;100127.34;104034;1287;98447;-86
2023/04/26 08:20:08;;;;;;;10.30;2.00;;;;;;;9.09;71.87;100130.09;104053;1285;101498;-85
2023/04/26 08:22:55;;;;;;;11.40;2.80;;;;;;;9.30;72.09;100124.48;103878;1283;100474;-84
2023/04/26 08:25:43;;;;;;;9.70;2.20;;;;;;;9.41;70.81;100121.42;103893;1288;98922;-84
2023/04/26 08:28:28;;;;;;;3.20;1.70;;;;;;;9.33;68.44;100126.94;104049;1288;98042;-84
2023/04/26 08:31:14;;;;;;;12.90;4.10;;;;;;;9.25;68.57;100125.01;104220;1284;98552;-86
2023/04/26 08:34:01;;;;;;;7.00;1.80;;;;;;;9.37;68.98;100128.71;104798;1283;103264;-89
2023/04/26 08:36:46;;;;;;;14.10;2.30;;;;;;;9.53;68.39;100137.42;104658;1283;99109;-89
2023/04/26 08:39:32;;;;;;;11.60;3.90;;;;;;;9.62;67.97;100138.09;104570;1281;98023;-88
2023/04/26 08:42:19;;;;;;;23.90;10.60;;;;;;;9.59;66.51;100132.92;104409;1287;98001;-87
2023/04/26 08:45:10;;;;;;;12.20;5.00;;;;;;;9.60;65.53;100131.73;104423;1284;98005;-86
2023/04/26 08:48:02;;;;;;;9.00;5.00;;;;;;;9.70;64.87;100134.01;104376;1282;101335;-85
2023/04/26 08:50:49;;;;;;;12.60;3.30;;;;;;;9.82;64.97;100135.14;104505;1285;100857;-88
2023/04/26 08:53:35;;;;;;;6.90;2.80;;;;;;;9.98;65.57;100137.37;104273;1287;98072;-85
2023/04/26 08:56:23;;;;;;;9.50;2.10;;;;;;;10.07;65.06;100141.07;104085;1283;97976;-87
2023/04/26 08:59:09;;;;;;;6.60;1.80;;;;;;;10.01;63.54;100149.33;104428;1283;97951;-88
2023/04/26 09:01:55;;;;;;;6.90;1.70;;;;;;;9.85;61.82;100152.20;104569;1280;102131;-90
2023/04/26 09:04:41;;;;;;;5.50;1.90;;;;;;;9.90;63.10;100151.17;104736;1283;99198;-90
2023/04/26 09:07:34;;;;;;;4.60;1.70;;;;;;;10.02;62.37;100156.30;104357;1281;99239;-86
2023/04/26 09:10:23;;;;;;;5.50;1.60;;;;;;;10.16;62.99;100158.16;104487;1281;98021;-92
2023/04/26 09:13:10;;;;;;;8.70;1.90;;;;;;;10.25;61.23;100163.01;104683;1283;98434;-89
2023/04/26 09:15:58;;;;;;;6.40;1.40;;;;;;;10.23;60.18;100158.54;104860;1288;102565;-91
2023/04/26 09:18:51;;;;;;;5.20;1.70;;;;;;;10.27;59.72;100157.83;104138;1283;100399;-83
2023/04/26 09:21:45;;;;;;;4.30;1.40;;;;;;;10.29;59.90;100154.47;103857;1283;99105;-85
2023/04/26 09:24:49;;;;;;;4.50;1.40;;;;;;;10.33;59.38;100160.02;103934;1283;98954;-83
2023/04/26 09:27:40;;;;;;;5.70;1.80;;;;;;;10.34;60.11;100164.14;104251;1285;98507;-83
2023/04/26 09:30:26;;;;;;;2.10;1.50;;;;;;;10.27;58.45;100167.89;104253;1282;101465;-80
2023/04/26 09:33:12;;;;;;;7.90;1.90;;;;;;;10.25;57.79;100171.61;104363;1285;99144;-81
2023/04/26 09:36:10;;;;;;;3.90;1.40;;;;;;;10.31;57.60;100167.05;104230;1285;98075;-81
2023/04/26 09:38:57;;;;;;;3.50;1.30;;;;;;;10.37;57.13;100167.52;103805;1285;97991;-85
2023/04/26 09:41:44;;;;;;;6.10;1.50;;;;;;;10.44;56.60;100168.73;104404;1284;98116;-83
2023/04/26 09:44:30;;;;;;;4.20;1.70;;;;;;;10.46;56.02;100162.02;104196;1283;102671;-80
2023/04/26 09:47:16;;;;;;;6.40;1.60;;;;;;;10.32;55.88;100165.89;104159;1285;100824;-81
2023/04/26 09:50:03;;;;;;;6.90;1.70;;;;;;;10.16;56.46;100174.05;104262;1283;98050;-85
2023/04/26 09:52:48;;;;;;;8.20;1.70;;;;;;;10.01;56.31;100178.55;103981;1286;98135;-86
2023/04/26 09:55:34;;;;;;;7.20;1.40;;;;;;;9.88;56.48;100178.27;104164;1283;98062;-86
2023/04/26 09:58:21;;;;;;;8.20;1.90;;;;;;;9.76;56.23;100175.70;103928;1285;102450;-84
2023/04/26 10:01:08;;;;;;;13.50;3.40;;;;;;;9.70;57.36;100173.83;103995;1286;99124;-83
2023/04/26 10:03:56;;;;;;;8.20;2.10;;;;;;;9.71;57.05;100179.72;104195;1285;98544;-84
2023/04/26 10:06:42;;;;;;;7.00;2.00;;;;;;;9.68;57.31;100181.17;104014;1285;98054;-85
2023/04/26 10:09:27;;;;;;;8.80;1.90;;;;;;;9.83;58.29;100179.02;104099;1283;98504;-85
2023/04/26 10:12:16;;;;;;;4.80;1.40;;;;;;;9.96;58.16;100178.52;104006;1283;101456;-84
2023/04/26 10:15:03;;;;;;;6.90;1.50;;;;;;;9.95;56.15;100188.27;104047;1283;100401;-85
2023/04/26 10:17:48;;;;;;;12.60;1.90;;;;;;;9.83;55.44;100196.78;104083;1285;98515;-81
2023/04/26 10:20:38;;;;;;;7.50;1.50;;;;;;;9.69;55.28;100199.20;104110;1285;98034;-85
2023/04/26 10:23:25;;;;;;;4.00;1.60;;;;;;;9.55;55.61;100202.55;104212;1286;97947;-86
2023/04/26 10:26:48;;;;;;;8.10;2.50;;;;;;;9.47;55.50;100205.88;104043;1283;101406;-87
2023/04/26 10:29:53;;;;;;;4.80;1.40;;;;;;;9.45;55.74;100203.45;104524;1285;108692;-87
2023/04/26 10:32:51;;;;;;;9.40;1.70;;;;;;;9.51;56.40;100207.20;104371;1283;99045;-85
2023/04/26 10:36:07;;;;;;;7.80;2.40;;;;;;;9.65;57.01;100202.55;104221;1286;97951;-85
2023/04/26 10:39:21;;;;;;;13.30;2.50;;;;;;;9.82;57.15;100198.30;104039;1283;99578;-86
2023/04/26 10:42:26;;;;;;;9.20;1.80;;;;;;;9.84;55.64;100202.40;104025;1286;102664;-85
2023/04/26 10:45:27;;;;;;;15.80;1.80;;;;;;;9.77;55.21;100198.25;104225;1285;100831;-85
2023/04/26 10:48:29;;;;;;;5.40;1.60;;;;;;;9.69;54.79;100204.59;103946;1286;99120;-85
2023/04/26 10:51:15;;;;;;;6.20;1.40;;;;;;;9.64;55.79;100205.70;104023;1286;98024;-85
2023/04/26 10:54:01;;;;;;;5.60;1.70;;;;;;;9.64;56.10;100207.84;104079;1285;98075;-82
2023/04/26 10:56:47;;;;;;;6.80;1.30;;;;;;;9.60;55.59;100209.64;104846;1283;102478;-92
2023/04/26 10:59:36;;;;;;;6.40;1.50;;;;;;;9.48;54.50;100215.02;105202;1283;100488;-90
2023/04/26 11:05:54;;;;;;;;;;;;;;;9.31;54.42;100221.74;104096;1287;98106;-88
2023/04/26 11:08:39;;;;;;;4.70;2.20;;;;;;;9.27;54.72;100219.52;104110;1282;99581;-84
2023/04/26 11:11:28;;;;;;;4.00;1.40;;;;;;;9.28;54.62;100221.20;103857;1282;102217;-84
2023/04/26 11:14:16;;;;;;;3.30;1.60;;;;;;;9.31;54.76;100221.70;104375;1282;99129;-88
2023/04/26 11:17:03;;;;;;;4.00;1.70;;;;;;;9.35;54.46;100220.02;104270;1282;98505;-82
2023/04/26 11:19:49;;;;;;;3.80;1.30;;;;;;;9.36;54.23;100228.48;104190;1288;98457;-85
2023/04/26 11:22:40;;;;;;;5.20;1.60;;;;;;;9.40;54.40;100229.45;103979;1288;98005;-81
2023/04/26 11:25:27;;;;;;;8.30;1.80;;;;;;;9.46;54.94;100227.80;103828;1282;102649;-82
2023/04/26 11:28:13;;;;;;;5.60;2.00;;;;;;;9.53;54.61;100225.16;103871;1282;99139;-85
2023/04/26 11:30:59;;;;;;;3.70;1.50;;;;;;;9.56;54.25;100226.22;103905;1282;98040;-86
2023/04/26 11:33:45;;;;;;;5.50;1.90;;;;;;;9.52;53.56;100235.02;103821;1282;98128;-82
2023/04/26 11:36:31;;;;;;;6.80;1.60;;;;;;;9.49;52.92;100238.11;103916;1283;98569;-81
2023/04/26 11:39:19;;;;;;;6.60;1.70;;;;;;;9.48;52.61;100241.75;105331;1281;102662;-89
2023/04/26 11:42:06;;;;;;;4.50;2.10;;;;;;;9.53;53.02;100243.64;103635;1288;100404;-84
2023/04/26 11:44:53;;;;;;;4.10;1.50;;;;;;;9.60;52.73;100249.75;103916;1287;98145;-83
2023/04/26 11:47:39;;;;;;;6.00;2.20;;;;;;;9.66;52.80;100246.69;103996;1282;99342;-84
2023/04/26 11:50:25;;;;;;;4.60;1.70;;;;;;;9.70;52.74;100249.88;103957;1283;98023;-81
2023/04/26 11:53:11;;;;;;;5.00;1.70;;;;;;;9.70;52.04;100241.52;104244;1283;101409;-78
2023/04/26 11:55:56;;;;;;;6.00;1.90;;;;;;;9.71;52.40;100245.60;103387;1288;100216;-83
2023/04/26 11:58:50;;;;;;;4.10;1.30;;;;;;;9.76;52.49;100245.24;103864;1287;98978;-80
2023/04/26 12:01:35;;;;;;;3.80;1.30;;;;;;;9.77;52.32;100245.98;103868;1283;97999;-84
2023/04/26 12:04:28;;;;;;;6.20;1.90;;;;;;;9.76;52.53;100248.61;104182;1282;97971;-87
2023/04/26 12:07:17;;;;;;;6.50;1.70;;;;;;;9.78;52.39;100249.80;104417;1283;102554;-86
2023/04/26 12:10:14;;;;;;;5.20;1.70;;;;;;;9.78;52.43;100250.36;104386;1282;99195;-87
2023/04/26 12:13:01;;;;;;;9.50;1.70;;;;;;;9.67;52.00;100255.63;104417;1282;98536;-90
2023/04/26 12:15:49;;;;;;;3.90;1.70;;;;;;;9.56;52.18;100254.36;104429;1287;98101;-81
2023/04/26 12:18:35;;;;;;;8.40;2.10;;;;;;;9.51;52.64;100259.64;104016;1287;98552;-80
2023/04/26 12:21:21;;;;;;;11.20;4.80;;;;;;;9.47;52.35;100262.11;104060;1282;101462;-79
2023/04/26 12:24:07;;;;;;;5.80;2.30;;;;;;;9.47;52.20;100267.13;104085;1282;99210;-79
2023/04/26 12:26:52;;;;;;;6.00;1.50;;;;;;;9.52;52.53;100268.05;104029;1282;97948;-84
2023/04/26 12:29:38;;;;;;;6.50;2.10;;;;;;;9.64;52.81;100269.52;103953;1283;97994;-86
2023/04/26 12:32:24;;;;;;;9.10;1.90;;;;;;;9.75;52.10;100270.70;103826;1288;97941;-85
2023/04/26 12:35:10;;;;;;;6.50;1.70;;;;;;;9.81;52.08;100267.92;104020;1282;101544;-88
2023/04/26 12:37:59;;;;;;;7.00;1.60;;;;;;;9.85;52.21;100268.91;104384;1286;100329;-87
2023/04/26 12:40:45;;;;;;;7.20;2.00;;;;;;;9.83;52.10;100270.87;103891;1285;99008;-85
2023/04/26 12:43:31;;;;;;;8.80;2.40;;;;;;;9.79;52.31;100274.41;104128;1288;98035;-83
2023/04/26 12:46:16;;;;;;;13.70;3.00;;;;;;;9.79;52.09;100274.33;103971;1288;98456;-81
2023/04/26 12:49:02;;;;;;;9.20;3.90;;;;;;;9.82;52.53;100278.35;103878;1288;101385;-87
2023/04/26 12:51:48;;;;;;;7.30;2.50;;;;;;;9.90;52.82;100277.77;104058;1282;100521;-85
2023/04/26 12:54:34;;;;;;;5.20;1.90;;;;;;;9.96;52.36;100276.52;103759;1288;98978;-82
2023/04/26 12:57:20;;;;;;;7.10;1.80;;;;;;;10.00;52.47;100275.13;103841;1282;98015;-84